| time (UTC) | temp F | wind direction | speed MPH | gust MPH | rain 1hr in | rain 24hr in | rain mn in | humidity % | barometer mb |
| 20260508001845 | 56 | 306 | 4.0 | 6.0 | 0.00 | 0.00 | 0.00 | 44 | 1014.2 |
| 20260508001341 | 56 | 307 | 5.0 | 8.0 | 0.00 | 0.00 | 0.00 | 42 | 1013.8 |
| 20260508000838 | 56 | 310 | 3.0 | 6.0 | 0.00 | 0.00 | 0.00 | 45 | 1014.0 |
| 20260508000335 | 56 | 313 | 4.0 | 4.0 | 0.00 | 0.00 | 0.00 | 42 | 1014.0 |
| 20260507235831 | 57 | 321 | 3.0 | 8.0 | 0.00 | 0.00 | 0.00 | 41 | 1013.8 |
| 20260507235329 | 58 | 304 | 4.0 | 9.0 | 0.00 | 0.00 | 0.00 | 40 | 1013.7 |
| 20260507234825 | 58 | 300 | 5.0 | 9.0 | 0.00 | 0.00 | 0.00 | 41 | 1013.6 |
| 20260507234322 | 58 | 302 | 4.0 | 7.0 | 0.00 | 0.00 | 0.00 | 39 | 1013.5 |
| 20260507233818 | 59 | 319 | 4.0 | 7.0 | 0.00 | 0.00 | 0.00 | 39 | 1013.5 |
| 20260507233316 | 58 | 290 | 3.0 | 7.0 | 0.00 | 0.00 | 0.00 | 42 | 1013.5 |
| 20260507232814 | 58 | 331 | 8.0 | 10.0 | 0.00 | 0.00 | 0.00 | 38 | 1013.6 |
| 20260507232310 | 58 | 308 | 6.0 | 9.0 | 0.00 | 0.00 | 0.00 | 39 | 1013.4 |
| 20260507231807 | 59 | 274 | 0.0 | 4.0 | 0.00 | 0.00 | 0.00 | 40 | 1013.2 |
| 20260507231304 | 59 | 315 | 4.0 | 6.0 | 0.00 | 0.00 | 0.00 | 41 | 1013.5 |
| 20260507230800 | 59 | 317 | 5.0 | 6.0 | 0.00 | 0.00 | 0.00 | 39 | 1013.3 |
| 20260507230258 | 58 | 304 | 9.0 | 13.0 | 0.00 | 0.00 | 0.00 | 39 | 1013.2 |
| 20260507225758 | 58 | 292 | 7.0 | 9.0 | 0.00 | 0.00 | 0.00 | 40 | 1013.1 |
| 20260507225254 | 60 | 300 | 8.0 | 10.0 | 0.00 | 0.00 | 0.00 | 38 | 1013.1 |
| 20260507224750 | 60 | 326 | 6.0 | 8.0 | 0.00 | 0.00 | 0.00 | 39 | 1013.0 |
| 20260507224247 | 60 | 263 | 9.0 | 13.0 | 0.00 | 0.00 | 0.00 | 39 | 1013.2 |
| 20260507223743 | 60 | 275 | 2.0 | 6.0 | 0.00 | 0.00 | 0.00 | 37 | 1013.0 |
| 20260507223240 | 59 | 316 | 3.0 | 8.0 | 0.00 | 0.00 | 0.00 | 41 | 1013.2 |
| 20260507222737 | 58 | 271 | 8.0 | 9.0 | 0.00 | 0.00 | 0.00 | 40 | 1013.0 |
| 20260507222233 | 59 | 303 | 6.0 | 7.0 | 0.00 | 0.00 | 0.00 | 40 | 1012.9 |
| 20260507221730 | 59 | 307 | 4.0 | 7.0 | 0.00 | 0.00 | 0.00 | 43 | 1012.9 |
| 20260507221226 | 59 | 322 | 7.0 | 13.0 | 0.00 | 0.00 | 0.00 | 40 | 1012.9 |
| 20260507220723 | 60 | 309 | 5.0 | 13.0 | 0.00 | 0.00 | 0.00 | 39 | 1012.7 |
| 20260507220221 | 61 | 253 | 4.0 | 11.0 | 0.00 | 0.00 | 0.00 | 37 | 1012.7 |
| 20260507215717 | 62 | 274 | 5.0 | 8.0 | 0.00 | 0.00 | 0.00 | 38 | 1012.6 |
| 20260507215215 | 60 | 316 | 6.0 | 8.0 | 0.00 | 0.00 | 0.00 | 41 | 1012.7 |
| 20260507214712 | 60 | 323 | 1.0 | 8.0 | 0.00 | 0.00 | 0.00 | 39 | 1012.7 |
| 20260507214209 | 61 | 301 | 3.0 | 9.0 | 0.00 | 0.00 | 0.00 | 41 | 1012.4 |
| 20260507213704 | 61 | 333 | 6.0 | 11.0 | 0.00 | 0.00 | 0.00 | 38 | 1012.5 |
| 20260507213202 | 62 | 325 | 7.0 | 8.0 | 0.00 | 0.00 | 0.00 | 39 | 1012.5 |
| 20260507212657 | 61 | 317 | 6.0 | 8.0 | 0.00 | 0.00 | 0.00 | 42 | 1012.3 |
| 20260507212154 | 60 | 304 | 4.0 | 11.0 | 0.00 | 0.00 | 0.00 | 43 | 1012.5 |
| 20260507211651 | 60 | 290 | 2.0 | 11.0 | 0.00 | 0.00 | 0.00 | 43 | 1012.6 |
| 20260507211146 | 60 | 315 | 5.0 | 7.0 | 0.00 | 0.00 | 0.00 | 41 | 1012.2 |
| 20260507210644 | 61 | 310 | 6.0 | 8.0 | 0.00 | 0.00 | 0.00 | 43 | 1012.4 |
| 20260507210141 | 59 | 325 | 5.0 | 6.0 | 0.00 | 0.00 | 0.00 | 44 | 1012.5 |
| 20260507205637 | 59 | 308 | 3.0 | 7.0 | 0.00 | 0.00 | 0.00 | 46 | 1012.5 |
| 20260507205134 | 59 | 288 | 5.0 | 7.0 | 0.00 | 0.00 | 0.00 | 44 | 1012.5 |
| 20260507204630 | 59 | 290 | 7.0 | 9.0 | 0.00 | 0.00 | 0.00 | 45 | 1012.4 |
| 20260507204128 | 58 | 327 | 2.0 | 8.0 | 0.00 | 0.00 | 0.00 | 44 | 1012.2 |
| 20260507203626 | 58 | 294 | 3.0 | 10.0 | 0.00 | 0.00 | 0.00 | 43 | 1012.3 |
| 20260507203123 | 58 | 315 | 3.0 | 4.0 | 0.00 | 0.00 | 0.00 | 47 | 1012.2 |
| 20260507202619 | 58 | 323 | 3.0 | 4.0 | 0.00 | 0.00 | 0.00 | 45 | 1012.5 |
| 20260507202115 | 58 | 324 | 4.0 | 7.0 | 0.00 | 0.00 | 0.00 | 44 | 1012.8 |
| 20260507201610 | 58 | 278 | 3.0 | 7.0 | 0.00 | 0.00 | 0.00 | 50 | 1012.5 |
| 20260507201108 | 58 | 321 | 3.0 | 7.0 | 0.00 | 0.00 | 0.00 | 47 | 1012.5 |
| 20260507200603 | 58 | 307 | 6.0 | 8.0 | 0.00 | 0.00 | 0.00 | 46 | 1012.3 |
| 20260507200059 | 58 | 331 | 2.0 | 3.0 | 0.00 | 0.00 | 0.00 | 49 | 1012.3 |
| 20260507195557 | 58 | 313 | 4.0 | 9.0 | 0.00 | 0.00 | 0.00 | 46 | 1012.7 |
| 20260507195054 | 59 | 273 | 5.0 | 8.0 | 0.00 | 0.00 | 0.00 | 43 | 1012.7 |
| 20260507194550 | 60 | 334 | 4.0 | 9.0 | 0.00 | 0.00 | 0.00 | 45 | 1012.7 |
| 20260507194046 | 60 | 275 | 9.0 | 10.0 | 0.00 | 0.00 | 0.00 | 46 | 1013.0 |
| 20260507193543 | 59 | 285 | 6.0 | 10.0 | 0.00 | 0.00 | 0.00 | 46 | 1013.1 |
| 20260507193040 | 59 | 239 | 5.0 | 14.0 | 0.00 | 0.00 | 0.00 | 45 | 1012.9 |
| 20260507192536 | 59 | 291 | 3.0 | 7.0 | 0.00 | 0.00 | 0.00 | 48 | 1013.1 |
| 20260507192033 | 59 | 309 | 6.0 | 8.0 | 0.00 | 0.00 | 0.00 | 45 | 1013.1 |
| 20260507191528 | 57 | 331 | 2.0 | 10.0 | 0.00 | 0.00 | 0.00 | 47 | 1012.9 |
| 20260507191026 | 57 | 327 | 6.0 | 7.0 | 0.00 | 0.00 | 0.00 | 50 | 1013.3 |
| 20260507190523 | 57 | 309 | 7.0 | 13.0 | 0.00 | 0.00 | 0.00 | 48 | 1012.9 |
| 20260507190022 | 58 | 307 | 8.0 | 10.0 | 0.00 | 0.00 | 0.00 | 49 | 1013.0 |
| 20260507185520 | 57 | 310 | 4.0 | 13.0 | 0.00 | 0.00 | 0.00 | 49 | 1013.1 |
| 20260507185016 | 58 | 309 | 5.0 | 10.0 | 0.00 | 0.00 | 0.00 | 49 | 1013.1 |
| 20260507184514 | 58 | 308 | 3.0 | 8.0 | 0.00 | 0.00 | 0.00 | 50 | 1013.1 |
| 20260507184012 | 58 | 61 | 3.0 | 7.0 | 0.00 | 0.00 | 0.00 | 45 | 1013.0 |
| 20260507183507 | 58 | 305 | 4.0 | 9.0 | 0.00 | 0.00 | 0.00 | 47 | 1013.0 |
| 20260507183005 | 58 | 319 | 8.0 | 9.0 | 0.00 | 0.00 | 0.00 | 47 | 1013.1 |
| 20260507182501 | 59 | 327 | 4.0 | 6.0 | 0.00 | 0.00 | 0.00 | 45 | 1013.2 |
| 20260507181957 | 59 | 314 | 4.0 | 8.0 | 0.00 | 0.00 | 0.00 | 47 | 1013.2 |
| 20260507181454 | 58 | 321 | 6.0 | 9.0 | 0.00 | 0.00 | 0.00 | 49 | 1013.3 |
| 20260507180950 | 59 | 319 | 6.0 | 7.0 | 0.00 | 0.00 | 0.00 | 49 | 1013.1 |
| 20260507180447 | 59 | 320 | 2.0 | 4.0 | 0.00 | 0.00 | 0.00 | 49 | 1013.3 |
| 20260507175943 | 59 | 332 | 8.0 | 14.0 | 0.00 | 0.00 | 0.00 | 48 | 1013.1 |
| 20260507175440 | 59 | 287 | 3.0 | 4.0 | 0.00 | 0.00 | 0.00 | 53 | 1013.3 |
| 20260507174938 | 59 | 315 | 3.0 | 9.0 | 0.00 | 0.00 | 0.00 | 46 | 1013.0 |
| 20260507174434 | 60 | 334 | 10.0 | 14.0 | 0.00 | 0.00 | 0.00 | 46 | 1013.3 |
| 20260507173932 | 59 | 311 | 6.0 | 9.0 | 0.00 | 0.00 | 0.00 | 46 | 1013.3 |
| 20260507173429 | 60 | 321 | 8.0 | 9.0 | 0.00 | 0.00 | 0.00 | 47 | 1013.4 |
| 20260507172926 | 60 | 324 | 10.0 | 11.0 | 0.00 | 0.00 | 0.00 | 48 | 1013.5 |
| 20260507172422 | 60 | 305 | 4.0 | 10.0 | 0.00 | 0.00 | 0.00 | 52 | 1013.7 |
| 20260507171918 | 60 | 323 | 7.0 | 9.0 | 0.00 | 0.00 | 0.00 | 48 | 1013.6 |
| 20260507171415 | 61 | 279 | 5.0 | 13.0 | 0.00 | 0.00 | 0.00 | 46 | 1013.8 |
| 20260507170912 | 60 | 219 | 7.0 | 9.0 | 0.00 | 0.00 | 0.00 | 45 | 1013.7 |
| 20260507170409 | 59 | 213 | 0.0 | 4.0 | 0.00 | 0.00 | 0.00 | 46 | 1014.0 |
| 20260507165905 | 58 | 35 | 2.0 | 6.0 | 0.00 | 0.00 | 0.00 | 46 | 1014.1 |
| 20260507165401 | 57 | 322 | 2.0 | 8.0 | 0.00 | 0.00 | 0.00 | 50 | 1014.1 |
| 20260507164857 | 56 | 334 | 4.0 | 7.0 | 0.00 | 0.00 | 0.00 | 50 | 1014.1 |
| 20260507164354 | 57 | 250 | 2.0 | 4.0 | 0.00 | 0.00 | 0.00 | 46 | 1014.1 |
| 20260507163851 | 56 | 318 | 2.0 | 7.0 | 0.00 | 0.00 | 0.00 | 50 | 1014.2 |
| 20260507163348 | 56 | 328 | 2.0 | 6.0 | 0.00 | 0.00 | 0.00 | 52 | 1014.4 |
| 20260507162845 | 56 | 315 | 0.0 | 2.0 | 0.00 | 0.00 | 0.00 | 52 | 1014.4 |
| 20260507162340 | 56 | 331 | 2.0 | 7.0 | 0.00 | 0.00 | 0.00 | 49 | 1014.3 |
| 20260507161838 | 57 | 295 | 5.0 | 7.0 | 0.00 | 0.00 | 0.00 | 49 | 1014.4 |
| 20260507161334 | 56 | 305 | 2.0 | 6.0 | 0.00 | 0.00 | 0.00 | 46 | 1014.4 |
| 20260507160831 | 58 | 316 | 6.0 | 9.0 | 0.00 | 0.00 | 0.00 | 49 | 1014.3 |
| 20260507160326 | 57 | 236 | 0.0 | 7.0 | 0.00 | 0.00 | 0.00 | 50 | 1014.4 |
| 20260507155823 | 56 | 322 | 3.0 | 8.0 | 0.00 | 0.00 | 0.00 | 49 | 1014.6 |
| 20260507155319 | 55 | 325 | 3.0 | 7.0 | 0.00 | 0.00 | 0.00 | 51 | 1014.6 |
| 20260507154816 | 56 | 20 | 0.0 | 2.0 | 0.00 | 0.00 | 0.00 | 49 | 1014.6 |
| 20260507154313 | 54 | 329 | 1.0 | 3.0 | 0.00 | 0.00 | 0.00 | 52 | 1014.7 |
| 20260507153810 | 55 | 332 | 6.0 | 8.0 | 0.00 | 0.00 | 0.00 | 52 | 1014.5 |
| 20260507153306 | 56 | 322 | 0.0 | 3.0 | 0.00 | 0.00 | 0.00 | 50 | 1014.5 |
| 20260507152803 | 57 | 42 | 1.0 | 3.0 | 0.00 | 0.00 | 0.00 | 51 | 1014.6 |
| 20260507152259 | 56 | 66 | 1.0 | 6.0 | 0.00 | 0.00 | 0.00 | 54 | 1014.4 |
| 20260507151755 | 55 | 333 | 2.0 | 4.0 | 0.00 | 0.00 | 0.00 | 54 | 1014.5 |
| 20260507151251 | 54 | 304 | 2.0 | 6.0 | 0.00 | 0.00 | 0.00 | 54 | 1014.7 |
| 20260507150748 | 55 | 326 | 6.0 | 8.0 | 0.00 | 0.00 | 0.00 | 54 | 1014.6 |
| 20260507150245 | 56 | 252 | 2.0 | 6.0 | 0.00 | 0.00 | 0.00 | 52 | 1014.7 |
| 20260507145741 | 55 | 237 | 1.0 | 2.0 | 0.00 | 0.00 | 0.00 | 52 | 1014.5 |
| 20260507145238 | 53 | 244 | 1.0 | 4.0 | 0.00 | 0.00 | 0.00 | 54 | 1014.7 |
| 20260507144735 | 53 | 282 | 2.0 | 4.0 | 0.00 | 0.00 | 0.00 | 57 | 1014.8 |
| 20260507144233 | 54 | 308 | 6.0 | 7.0 | 0.00 | 0.00 | 0.00 | 57 | 1014.8 |
| 20260507143729 | 53 | 330 | 1.0 | 2.0 | 0.00 | 0.00 | 0.00 | 55 | 1014.7 |
| 20260507143226 | 52 | 48 | 0.0 | 1.0 | 0.00 | 0.00 | 0.00 | 56 | 1014.7 |
| 20260507142723 | 52 | 326 | 3.0 | 3.0 | 0.00 | 0.00 | 0.00 | 59 | 1014.8 |
| 20260507142219 | 53 | 237 | 4.0 | 4.0 | 0.00 | 0.00 | 0.00 | 58 | 1014.8 |
| 20260507141715 | 53 | 289 | 4.0 | 6.0 | 0.00 | 0.00 | 0.00 | 62 | 1014.7 |
| 20260507141213 | 53 | 53 | 4.0 | 4.0 | 0.00 | 0.00 | 0.00 | 61 | 1014.7 |
| 20260507140708 | 52 | 61 | 0.0 | 4.0 | 0.00 | 0.00 | 0.00 | 59 | 1015.0 |
| 20260507140206 | 52 | 76 | 2.0 | 7.0 | 0.00 | 0.00 | 0.00 | 61 | 1015.1 |
| 20260507135703 | 52 | 72 | 0.0 | 4.0 | 0.00 | 0.00 | 0.00 | 60 | 1015.2 |
| 20260507135200 | 52 | 239 | 0.0 | 0.0 | 0.00 | 0.00 | 0.00 | 60 | 1015.2 |
| 20260507134657 | 51 | 348 | 0.0 | 0.0 | 0.00 | 0.00 | 0.00 | 61 | 1015.5 |
| 20260507134153 | 51 | 54 | 3.0 | 7.0 | 0.00 | 0.00 | 0.00 | 60 | 1015.7 |
| 20260507133649 | 51 | 70 | 2.0 | 3.0 | 0.00 | 0.00 | 0.00 | 61 | 1015.6 |
| 20260507133146 | 51 | 35 | 0.0 | 2.0 | 0.00 | 0.00 | 0.00 | 62 | 1015.7 |
| 20260507132643 | 51 | 15 | 2.0 | 3.0 | 0.00 | 0.00 | 0.00 | 63 | 1015.8 |
| 20260507132139 | 50 | 323 | 0.0 | 1.0 | 0.00 | 0.00 | 0.00 | 64 | 1015.8 |
| 20260507131636 | 50 | 141 | 0.0 | 1.0 | 0.00 | 0.00 | 0.00 | 64 | 1016.0 |
| 20260507131134 | 50 | 191 | 0.0 | 0.0 | 0.00 | 0.00 | 0.00 | 65 | 1016.3 |
| 20260507130630 | 50 | 214 | 1.0 | 2.0 | 0.00 | 0.00 | 0.00 | 66 | 1016.2 |
| 20260507130129 | 49 | 308 | 2.0 | 4.0 | 0.00 | 0.00 | 0.00 | 64 | 1015.7 |
| 20260507125627 | 49 | 299 | 2.0 | 2.0 | 0.00 | 0.00 | 0.00 | 67 | 1015.9 |
| 20260507125124 | 49 | 232 | 1.0 | 2.0 | 0.00 | 0.00 | 0.00 | 68 | 1015.9 |
| 20260507124620 | 49 | 316 | 0.0 | 0.0 | 0.00 | 0.00 | 0.00 | 69 | 1015.7 |
| 20260507124118 | 48 | 205 | 0.0 | 0.0 | 0.00 | 0.00 | 0.00 | 68 | 1015.8 |
| 20260507123616 | 46 | 196 | 0.0 | 0.0 | 0.00 | 0.00 | 0.00 | 77 | 1015.8 |
| 20260507123113 | 46 | 99 | 0.0 | 0.0 | 0.00 | 0.00 | 0.00 | 84 | 1016.0 |
| 20260507122608 | 46 | 119 | 0.0 | 0.0 | 0.00 | 0.00 | 0.00 | 88 | 1016.0 |
| 20260507122104 | 45 | 79 | 0.0 | 0.0 | 0.00 | 0.00 | 0.00 | 91 | 1015.9 |
| 20260507121600 | 45 | 82 | 0.0 | 0.0 | 0.00 | 0.00 | 0.00 | 91 | 1015.8 |
| 20260507121056 | 44 | 86 | 0.0 | 0.0 | 0.00 | 0.00 | 0.00 | 91 | 1015.9 |
| 20260507120552 | 44 | 83 | 0.0 | 0.0 | 0.00 | 0.00 | 0.00 | 91 | 1015.9 |
| 20260507120049 | 44 | 83 | 0.0 | 0.0 | 0.00 | 0.00 | 0.00 | 91 | 1015.9 |
| 20260507115545 | 44 | 113 | 0.0 | 0.0 | 0.00 | 0.00 | 0.00 | 91 | 1015.7 |
| 20260507115041 | 43 | 112 | 0.0 | 0.0 | 0.00 | 0.00 | 0.00 | 91 | 1015.9 |
| 20260507114537 | 43 | 107 | 0.0 | 0.0 | 0.00 | 0.00 | 0.00 | 91 | 1015.9 |
| 20260507114035 | 43 | 93 | 0.0 | 0.0 | 0.00 | 0.00 | 0.00 | 91 | 1015.7 |
| 20260507113532 | 43 | 78 | 0.0 | 0.0 | 0.00 | 0.00 | 0.00 | 91 | 1015.8 |
| 20260507113029 | 42 | 80 | 0.0 | 0.0 | 0.00 | 0.00 | 0.00 | 91 | 1015.8 |
| 20260507112527 | 42 | 106 | 0.0 | 0.0 | 0.00 | 0.00 | 0.00 | 91 | 1015.8 |
| 20260507112023 | 41 | 174 | 0.0 | 0.0 | 0.00 | 0.00 | 0.00 | 91 | 1015.7 |
| 20260507111520 | 41 | 176 | 0.0 | 0.0 | 0.00 | 0.00 | 0.00 | 91 | 1015.8 |
| 20260507111017 | 42 | 125 | 0.0 | 0.0 | 0.00 | 0.00 | 0.00 | 91 | 1016.1 |
| 20260507110513 | 41 | 133 | 0.0 | 0.0 | 0.00 | 0.00 | 0.00 | 91 | 1016.1 |
| 20260507110010 | 40 | 133 | 0.0 | 0.0 | 0.00 | 0.00 | 0.00 | 91 | 1015.8 |
| 20260507105507 | 40 | 129 | 0.0 | 0.0 | 0.00 | 0.00 | 0.00 | 91 | 1015.8 |
| 20260507105003 | 40 | 128 | 0.0 | 0.0 | 0.00 | 0.00 | 0.00 | 91 | 1015.6 |
| 20260507104501 | 40 | 121 | 0.0 | 0.0 | 0.00 | 0.00 | 0.00 | 91 | 1015.8 |
| 20260507103956 | 40 | 127 | 0.0 | 0.0 | 0.00 | 0.00 | 0.00 | 91 | 1015.8 |
| 20260507103453 | 40 | 127 | 0.0 | 0.0 | 0.00 | 0.00 | 0.00 | 91 | 1015.7 |
| 20260507102949 | 40 | 109 | 0.0 | 0.0 | 0.00 | 0.00 | 0.00 | 91 | 1015.7 |
| 20260507102446 | 40 | 120 | 0.0 | 0.0 | 0.00 | 0.00 | 0.00 | 91 | 1015.7 |
| 20260507101942 | 40 | 197 | 0.0 | 0.0 | 0.00 | 0.00 | 0.00 | 91 | 1015.7 |
| 20260507101437 | 40 | 197 | 0.0 | 0.0 | 0.00 | 0.00 | 0.00 | 90 | 1015.7 |
| 20260507100934 | 41 | 197 | 0.0 | 0.0 | 0.00 | 0.00 | 0.00 | 90 | 1015.8 |
| 20260507100432 | 40 | 197 | 0.0 | 0.0 | 0.00 | 0.00 | 0.00 | 90 | 1015.5 |
| 20260507095930 | 40 | 197 | 0.0 | 0.0 | 0.00 | 0.00 | 0.00 | 90 | 1015.5 |
| 20260507095427 | 40 | 197 | 0.0 | 0.0 | 0.00 | 0.00 | 0.00 | 90 | 1015.5 |
| 20260507094924 | 41 | 200 | 0.0 | 0.0 | 0.00 | 0.00 | 0.00 | 90 | 1015.7 |
| 20260507094420 | 41 | 221 | 0.0 | 0.0 | 0.00 | 0.00 | 0.00 | 90 | 1015.6 |
| 20260507093917 | 41 | 220 | 0.0 | 0.0 | 0.00 | 0.00 | 0.00 | 90 | 1015.6 |
| 20260507093415 | 42 | 191 | 0.0 | 0.0 | 0.00 | 0.00 | 0.00 | 90 | 1015.4 |
| 20260507092913 | 41 | 126 | 0.0 | 0.0 | 0.00 | 0.00 | 0.00 | 89 | 1015.4 |
| 20260507092409 | 41 | 100 | 0.0 | 0.0 | 0.00 | 0.00 | 0.00 | 89 | 1015.5 |
| 20260507091906 | 42 | 99 | 0.0 | 0.0 | 0.00 | 0.00 | 0.00 | 89 | 1015.3 |
| 20260507091402 | 42 | 98 | 0.0 | 0.0 | 0.00 | 0.00 | 0.00 | 89 | 1015.5 |
| 20260507090858 | 42 | 171 | 0.0 | 0.0 | 0.00 | 0.00 | 0.00 | 89 | 1015.6 |
| 20260507090354 | 42 | 116 | 0.0 | 0.0 | 0.00 | 0.00 | 0.00 | 88 | 1015.5 |
| 20260507085852 | 42 | 96 | 0.0 | 0.0 | 0.00 | 0.00 | 0.00 | 87 | 1015.3 |
| 20260507085348 | 43 | 80 | 0.0 | 0.0 | 0.00 | 0.00 | 0.00 | 87 | 1015.6 |
| 20260507084846 | 43 | 101 | 0.0 | 0.0 | 0.00 | 0.00 | 0.00 | 86 | 1015.4 |
| 20260507084342 | 44 | 101 | 0.0 | 0.0 | 0.00 | 0.00 | 0.00 | 85 | 1015.5 |
| 20260507083839 | 44 | 105 | 0.0 | 0.0 | 0.00 | 0.00 | 0.00 | 85 | 1015.4 |
| 20260507083336 | 45 | 137 | 0.0 | 0.0 | 0.00 | 0.00 | 0.00 | 85 | 1015.7 |
| 20260507082832 | 45 | 211 | 0.0 | 0.0 | 0.00 | 0.00 | 0.00 | 85 | 1015.7 |
| 20260507082327 | 46 | 333 | 0.0 | 0.0 | 0.00 | 0.00 | 0.00 | 83 | 1015.4 |
| 20260507081825 | 46 | 205 | 0.0 | 0.0 | 0.00 | 0.00 | 0.00 | 82 | 1015.5 |
| 20260507081321 | 47 | 260 | 0.0 | 0.0 | 0.00 | 0.00 | 0.00 | 83 | 1015.3 |
| 20260507080818 | 47 | 79 | 0.0 | 0.0 | 0.00 | 0.00 | 0.00 | 81 | 1015.4 |
| 20260507080314 | 47 | 82 | 0.0 | 0.0 | 0.00 | 0.00 | 0.00 | 82 | 1015.5 |
| 20260507075809 | 47 | 250 | 0.0 | 0.0 | 0.00 | 0.00 | 0.00 | 83 | 1015.5 |
| 20260507075307 | 47 | 268 | 0.0 | 0.0 | 0.00 | 0.00 | 0.00 | 84 | 1015.4 |
| 20260507074802 | 47 | 268 | 0.0 | 0.0 | 0.00 | 0.00 | 0.00 | 84 | 1015.3 |
| 20260507074300 | 47 | 267 | 0.0 | 0.0 | 0.00 | 0.00 | 0.00 | 84 | 1015.2 |
| 20260507073757 | 47 | 244 | 0.0 | 0.0 | 0.00 | 0.00 | 0.00 | 84 | 1015.4 |
| 20260507073253 | 47 | 244 | 0.0 | 0.0 | 0.00 | 0.00 | 0.00 | 84 | 1015.4 |
| 20260507072751 | 48 | 244 | 0.0 | 0.0 | 0.00 | 0.00 | 0.00 | 84 | 1015.2 |
| 20260507072248 | 48 | 308 | 0.0 | 0.0 | 0.00 | 0.00 | 0.00 | 83 | 1015.3 |
| 20260507071746 | 47 | 168 | 0.0 | 0.0 | 0.00 | 0.00 | 0.00 | 79 | 1015.3 |
| 20260507071242 | 47 | 168 | 0.0 | 0.0 | 0.00 | 0.00 | 0.00 | 82 | 1015.3 |
| 20260507070739 | 48 | 267 | 0.0 | 0.0 | 0.00 | 0.00 | 0.00 | 83 | 1015.2 |
| 20260507070236 | 48 | 283 | 0.0 | 0.0 | 0.00 | 0.00 | 0.00 | 82 | 1015.2 |
| 20260507065732 | 47 | 13 | 0.0 | 1.0 | 0.00 | 0.00 | 0.00 | 80 | 1015.2 |
| 20260507065229 | 48 | 78 | 1.0 | 1.0 | 0.00 | 0.00 | 0.00 | 82 | 1015.4 |
| 20260507064727 | 48 | 282 | 0.0 | 0.0 | 0.00 | 0.00 | 0.00 | 83 | 1015.3 |
| 20260507064226 | 48 | 291 | 0.0 | 0.0 | 0.00 | 0.00 | 0.00 | 82 | 1015.2 |
| 20260507063722 | 48 | 119 | 0.0 | 0.0 | 0.00 | 0.00 | 0.00 | 81 | 1015.3 |
| 20260507063219 | 48 | 310 | 0.0 | 0.0 | 0.00 | 0.00 | 0.00 | 85 | 1015.3 |
| 20260507062716 | 48 | 323 | 0.0 | 0.0 | 0.00 | 0.00 | 0.00 | 84 | 1015.2 |
| 20260507062214 | 48 | 21 | 0.0 | 0.0 | 0.00 | 0.00 | 0.00 | 82 | 1015.4 |
| 20260507061711 | 48 | 312 | 0.0 | 0.0 | 0.00 | 0.00 | 0.00 | 83 | 1015.2 |
| 20260507061209 | 48 | 314 | 0.0 | 0.0 | 0.00 | 0.00 | 0.00 | 83 | 1015.1 |
| 20260507060707 | 49 | 314 | 0.0 | 0.0 | 0.00 | 0.00 | 0.00 | 83 | 1015.4 |
| 20260507060203 | 49 | 319 | 0.0 | 0.0 | 0.00 | 0.00 | 0.00 | 81 | 1015.4 |
| 20260507055659 | 49 | 276 | 0.0 | 0.0 | 0.00 | 0.00 | 0.00 | 79 | 1015.2 |
| 20260507055155 | 49 | 230 | 0.0 | 0.0 | 0.00 | 0.00 | 0.00 | 78 | 1015.3 |
| 20260507054651 | 49 | 319 | 0.0 | 0.0 | 0.00 | 0.00 | 0.00 | 77 | 1015.5 |
| 20260507054148 | 49 | 97 | 0.0 | 0.0 | 0.00 | 0.00 | 0.00 | 74 | 1015.4 |
| 20260507053646 | 49 | 294 | 0.0 | 0.0 | 0.00 | 0.00 | 0.00 | 75 | 1015.4 |
| 20260507053144 | 50 | 297 | 1.0 | 2.0 | 0.00 | 0.00 | 0.00 | 77 | 1015.6 |
| 20260507052642 | 50 | 53 | 1.0 | 3.0 | 0.00 | 0.00 | 0.00 | 74 | 1015.8 |
| 20260507052138 | 50 | 64 | 0.0 | 0.0 | 0.00 | 0.00 | 0.00 | 74 | 1015.6 |
| 20260507051636 | 50 | 75 | 0.0 | 0.0 | 0.00 | 0.00 | 0.00 | 75 | 1015.6 |
| 20260507051132 | 50 | 282 | 0.0 | 0.0 | 0.00 | 0.00 | 0.00 | 75 | 1015.7 |
| 20260507050629 | 50 | 301 | 0.0 | 0.0 | 0.00 | 0.00 | 0.00 | 74 | 1015.9 |
| 20260507050126 | 50 | 322 | 0.0 | 0.0 | 0.00 | 0.00 | 0.00 | 74 | 1015.7 |
| 20260507045623 | 50 | 329 | 0.0 | 0.0 | 0.00 | 0.00 | 0.00 | 74 | 1015.7 |
| 20260507045120 | 50 | 318 | 1.0 | 2.0 | 0.00 | 0.00 | 0.00 | 75 | 1015.9 |
| 20260507044616 | 50 | 331 | 0.0 | 2.0 | 0.00 | 0.00 | 0.00 | 77 | 1015.9 |
| 20260507044113 | 50 | 10 | 0.0 | 4.0 | 0.00 | 0.00 | 0.00 | 78 | 1015.9 |
| 20260507043609 | 50 | 67 | 2.0 | 4.0 | 0.00 | 0.00 | 0.00 | 82 | 1015.7 |
| 20260507043107 | 49 | 52 | 0.0 | 7.0 | 0.00 | 0.00 | 0.00 | 86 | 1015.5 |
| 20260507042602 | 50 | 10 | 0.0 | 3.0 | 0.00 | 0.00 | 0.00 | 91 | 1015.6 |
| 20260507042058 | 50 | 53 | 1.0 | 1.0 | 0.00 | 0.00 | 0.00 | 91 | 1015.7 |
| 20260507041555 | 50 | 264 | 0.0 | 0.0 | 0.00 | 0.00 | 0.00 | 91 | 1015.5 |
| 20260507041052 | 50 | 301 | 0.0 | 0.0 | 0.00 | 0.00 | 0.00 | 91 | 1015.3 |
| 20260507040548 | 50 | 302 | 0.0 | 0.0 | 0.00 | 0.00 | 0.00 | 91 | 1015.4 |
| 20260507040045 | 50 | 302 | 0.0 | 0.0 | 0.00 | 0.48 | 0.48 | 91 | 1015.6 |
| 20260507035541 | 50 | 301 | 0.0 | 0.0 | 0.00 | 0.48 | 0.48 | 91 | 1015.3 |
| 20260507035037 | 50 | 301 | 0.0 | 0.0 | 0.00 | 0.48 | 0.48 | 91 | 1015.3 |
| 20260507034534 | 50 | 301 | 0.0 | 0.0 | 0.00 | 0.48 | 0.48 | 91 | 1015.3 |
| 20260507034032 | 50 | 301 | 0.0 | 0.0 | 0.00 | 0.48 | 0.48 | 91 | 1015.4 |
| 20260507033530 | 50 | 301 | 0.0 | 0.0 | 0.00 | 0.48 | 0.48 | 91 | 1015.5 |
| 20260507033027 | 50 | 317 | 0.0 | 0.0 | 0.00 | 0.48 | 0.48 | 91 | 1015.6 |
| 20260507032524 | 51 | 317 | 0.0 | 0.0 | 0.00 | 0.48 | 0.48 | 91 | 1015.5 |
| 20260507032020 | 50 | 303 | 0.0 | 0.0 | 0.00 | 0.48 | 0.48 | 91 | 1015.4 |
| 20260507031516 | 50 | 279 | 0.0 | 0.0 | 0.00 | 0.48 | 0.48 | 91 | 1015.4 |
| 20260507031014 | 50 | 279 | 0.0 | 0.0 | 0.00 | 0.48 | 0.48 | 91 | 1015.8 |
| 20260507030510 | 50 | 279 | 0.0 | 0.0 | 0.00 | 0.48 | 0.48 | 91 | 1015.8 |
| 20260507030008 | 50 | 22 | 0.0 | 0.0 | 0.00 | 0.48 | 0.48 | 90 | 1015.7 |
| 20260507025505 | 50 | 22 | 0.0 | 0.0 | 0.00 | 0.48 | 0.48 | 90 | 1015.4 |
| 20260507025002 | 50 | 22 | 0.0 | 0.0 | 0.00 | 0.48 | 0.48 | 90 | 1015.3 |
| 20260507024500 | 50 | 22 | 0.0 | 0.0 | 0.00 | 0.48 | 0.48 | 90 | 1015.3 |
| 20260507023956 | 51 | 265 | 0.0 | 0.0 | 0.00 | 0.48 | 0.48 | 90 | 1015.2 |
| 20260507023452 | 50 | 265 | 0.0 | 0.0 | 0.00 | 0.48 | 0.48 | 90 | 1015.3 |
| 20260507022949 | 50 | 265 | 0.0 | 0.0 | 0.00 | 0.48 | 0.48 | 90 | 1015.2 |
| 20260507022447 | 51 | 265 | 0.0 | 0.0 | 0.00 | 0.48 | 0.48 | 90 | 1015.0 |
| 20260507021942 | 51 | 265 | 0.0 | 0.0 | 0.00 | 0.48 | 0.48 | 90 | 1015.2 |
| 20260507021437 | 51 | 265 | 0.0 | 0.0 | 0.00 | 0.48 | 0.48 | 90 | 1015.0 |
| 20260507020935 | 51 | 264 | 0.0 | 0.0 | 0.00 | 0.48 | 0.48 | 90 | 1014.9 |
| 20260507020432 | 51 | 264 | 0.0 | 0.0 | 0.00 | 0.48 | 0.48 | 90 | 1014.9 |
| 20260507015929 | 51 | 264 | 0.0 | 0.0 | 0.00 | 0.48 | 0.48 | 90 | 1014.8 |
| 20260507015427 | 51 | 264 | 0.0 | 0.0 | 0.00 | 0.48 | 0.48 | 90 | 1014.9 |
| 20260507014924 | 51 | 291 | 0.0 | 0.0 | 0.00 | 0.48 | 0.48 | 90 | 1014.9 |
| 20260507014420 | 51 | 317 | 0.0 | 0.0 | 0.00 | 0.48 | 0.48 | 89 | 1014.8 |
| 20260507013917 | 51 | 229 | 0.0 | 0.0 | 0.00 | 0.48 | 0.48 | 89 | 1014.8 |
| 20260507013414 | 51 | 164 | 0.0 | 0.0 | 0.00 | 0.48 | 0.48 | 89 | 1014.8 |
| 20260507012912 | 51 | 195 | 0.0 | 0.0 | 0.00 | 0.48 | 0.48 | 89 | 1014.9 |
| 20260507012408 | 51 | 177 | 0.0 | 0.0 | 0.00 | 0.48 | 0.48 | 89 | 1014.6 |
| 20260507011904 | 51 | 262 | 0.0 | 0.0 | 0.00 | 0.48 | 0.48 | 89 | 1015.0 |
| 20260507011401 | 51 | 262 | 0.0 | 0.0 | 0.00 | 0.48 | 0.48 | 89 | 1014.8 |
| 20260507010901 | 51 | 262 | 0.0 | 0.0 | 0.00 | 0.48 | 0.48 | 89 | 1014.6 |
| 20260507010357 | 51 | 262 | 0.0 | 0.0 | 0.00 | 0.48 | 0.48 | 89 | 1014.4 |
| 20260507005855 | 51 | 263 | 0.0 | 0.0 | 0.00 | 0.48 | 0.48 | 89 | 1014.5 |
| 20260507005351 | 51 | 216 | 0.0 | 0.0 | 0.00 | 0.48 | 0.48 | 88 | 1014.2 |
| 20260507004848 | 51 | 216 | 0.0 | 0.0 | 0.00 | 0.48 | 0.48 | 88 | 1014.5 |
| 20260507004345 | 51 | 220 | 0.0 | 0.0 | 0.00 | 0.48 | 0.48 | 88 | 1014.4 |
| 20260507003842 | 51 | 220 | 0.0 | 0.0 | 0.00 | 0.48 | 0.48 | 88 | 1014.5 |
| 20260507003337 | 52 | 220 | 0.0 | 0.0 | 0.00 | 0.48 | 0.48 | 88 | 1014.7 |
| 20260507002832 | 52 | 211 | 0.0 | 0.0 | 0.00 | 0.48 | 0.48 | 88 | 1014.5 |
| 20260507002329 | 52 | 211 | 0.0 | 0.0 | 0.00 | 0.48 | 0.48 | 87 | 1014.5 |